MSC Lirica — HOPW — position and weather

sailwx.info

Track history (hours):
 
Tides and Currents Weather Stations Pressure Air Temp Water Temp Dewpoint Dewpoint Depression Visibility Wind Speed Wind Dir Waves Ship Positions

MSC Lirica

Operator: Mediterranean Shipping Company

Last reported at 2017-May-27 14:41 UTC. Time now 2017-May-28 06:46 UTC.
Position N 33°47' E 126°11'.

Length 275 m; draft 6.9 m.

Type: Ship. MMSI: 356042000.

Date/timePositionNaut miles runAvg speedWind from/ knotsBaromVisibWave heightAir tempDewpointWater temp
2017-May-27 14:41N 33°47' E 126°11'1217.3
2017-May-27 13:58N 33°53' E 125°58'917.6
2017-May-27 13:28N 33°58' E 125°49'9018.6
2017-May-27 08:36N 35°08' E 124°40'316.0
2017-May-27 08:27N 35°11' E 124°39'2315.1
2017-May-27 06:55N 35°31' E 124°27'7315.4
2017-May-27 02:13N 36°37' E 123°48'919.3
2017-May-27 01:46N 36°45' E 123°43'619.1
2017-May-27 01:28N 36°50' E 123°40'2818.3
2017-May-26 23:56N 37°15' E 123°25'817.4
2017-May-26 23:30N 37°22' E 123°21'917.2
2017-May-26 23:00N 37°30' E 123°16'917.1
2017-May-26 22:30N 37°38' E 123°11'816.7
2017-May-26 22:00N 37°43' E 123°03'917.8
2017-May-26 21:30N 37°47' E 122°53'917.9
2017-May-26 21:00N 37°51' E 122°43'918.2
2017-May-26 20:30N 37°54' E 122°33'918.7
2017-May-26 20:00N 37°58' E 122°21'1019.1
2017-May-26 19:30N 38°02' E 122°11'1019.3
2017-May-26 19:01N 38°06' E 121°60'1019.1
2017-May-26 18:30N 38°11' E 121°49'1019.0
2017-May-26 18:00N 38°16' E 121°39'918.8
2017-May-26 17:30N 38°20' E 121°28'918.7
2017-May-26 17:00N 38°24' E 121°17'918.7
2017-May-26 16:30N 38°28' E 121°07'3915.4
2017-May-26 13:59N 38°37' E 120°18'918.6
2017-May-26 13:30N 38°38' E 120°07'49 1.8
2017-May-25 10:02N 38°30' E 121°09'015.9
2017-May-25 10:01N 38°29' E 121°09'815.5
2017-May-25 09:29N 38°26' E 121°19'816.1
2017-May-25 09:00N 38°23' E 121°27'816.6
2017-May-25 08:30N 38°19' E 121°37'817.0
2017-May-25 08:01N 38°15' E 121°46'917.3
2017-May-25 07:28N 38°10' E 121°57'817.4
2017-May-25 07:00N 38°07' E 122°06'817.0
2017-May-25 06:30N 38°03' E 122°15'14215.2
2017-May-24 21:11N 36°10' E 124°04'317.5
2017-May-24 20:59N 36°07' E 124°06'1017.6
2017-May-24 20:25N 35°58' E 124°11'2317.5
2017-May-24 19:05N 35°37' E 124°23'217.4
2017-May-24 18:59N 35°35' E 124°24'917.4
2017-May-24 18:29N 35°28' E 124°29'917.5
2017-May-24 18:00N 35°20' E 124°33'  
2017-May-21 20:41N 38°10' E 121°54'419.4
2017-May-21 20:29N 38°11' E 121°50'919.3
2017-May-21 20:00N 38°15' E 121°39'919.0
2017-May-21 19:30N 38°19' E 121°28'1019.5
2017-May-21 19:00N 38°24' E 121°17'1020.0
2017-May-21 18:30N 38°28' E 121°05'1415.0
2017-May-21 17:34N 38°33' E 120°49'125 7.3
2017-May-21 00:37N 38°53' E 118°11'215.1
2017-May-21 00:27N 38°52' E 118°14'716.3
2017-May-21 00:00N 38°51' E 118°23'816.7
2017-May-20 23:30N 38°50' E 118°34'1016.5
2017-May-20 22:55N 38°49' E 118°46'717.3
2017-May-20 22:30N 38°48' E 118°55'917.5
2017-May-20 21:59N 38°48' E 119°07'1017.3
2017-May-20 21:24N 38°47' E 119°20'717.2
2017-May-20 21:00N 38°46' E 119°28'917.2
2017-May-20 20:30N 38°45' E 119°39'2017.0
2017-May-20 19:19N 38°42' E 120°05'916.8
2017-May-20 18:45N 38°40' E 120°17'416.9
2017-May-20 18:30N 38°40' E 120°22'3815.2
2017-May-20 16:02N 38°30' E 121°09'015.7
2017-May-20 16:00N 38°30' E 121°09'816.8
2017-May-20 15:30N 38°27' E 121°20'918.5
2017-May-20 15:01N 38°22' E 121°29'2019.5
2017-May-20 14:00N 38°13' E 121°51'1019.7
2017-May-20 13:30N 38°08' E 122°02'1019.6
2017-May-20 13:00N 38°04' E 122°13'1019.6
2017-May-20 12:30N 37°59' E 122°24'1119.3
2017-May-20 11:57N 37°54' E 122°36'1019.2
2017-May-20 11:26N 37°50' E 122°47'1019.1
2017-May-20 10:55N 37°45' E 122°58'1019.1
2017-May-20 10:23N 37°40' E 123°10'  
Track history (hours):
 
Tides and Currents Weather Stations Pressure Air Temp Water Temp Dewpoint Dewpoint Depression Visibility Wind Speed Wind Dir Waves Ship Positions

MSC Lirica

Operator: Mediterranean Shipping Company

Last reported at 2017-May-27 14:41 UTC. Time now 2017-May-28 06:46 UTC.
Position N 33°47' E 126°11'.

Length 275 m; draft 6.9 m.

Type: Ship. MMSI: 356042000.

Date/timePositionNaut miles runAvg speedWind from/ knotsBaromVisibWave heightAir tempDewpointWater temp
2017-May-27 14:41N 33°47' E 126°11'1217.3
2017-May-27 13:58N 33°53' E 125°58'917.6
2017-May-27 13:28N 33°58' E 125°49'9018.6
2017-May-27 08:36N 35°08' E 124°40'316.0
2017-May-27 08:27N 35°11' E 124°39'2315.1
2017-May-27 06:55N 35°31' E 124°27'7315.4
2017-May-27 02:13N 36°37' E 123°48'919.3
2017-May-27 01:46N 36°45' E 123°43'619.1
2017-May-27 01:28N 36°50' E 123°40'2818.3
2017-May-26 23:56N 37°15' E 123°25'817.4
2017-May-26 23:30N 37°22' E 123°21'917.2
2017-May-26 23:00N 37°30' E 123°16'917.1
2017-May-26 22:30N 37°38' E 123°11'816.7
2017-May-26 22:00N 37°43' E 123°03'917.8
2017-May-26 21:30N 37°47' E 122°53'917.9
2017-May-26 21:00N 37°51' E 122°43'918.2
2017-May-26 20:30N 37°54' E 122°33'918.7
2017-May-26 20:00N 37°58' E 122°21'1019.1
2017-May-26 19:30N 38°02' E 122°11'1019.3
2017-May-26 19:01N 38°06' E 121°60'1019.1
2017-May-26 18:30N 38°11' E 121°49'1019.0
2017-May-26 18:00N 38°16' E 121°39'918.8
2017-May-26 17:30N 38°20' E 121°28'918.7
2017-May-26 17:00N 38°24' E 121°17'918.7
2017-May-26 16:30N 38°28' E 121°07'3915.4
2017-May-26 13:59N 38°37' E 120°18'918.6
2017-May-26 13:30N 38°38' E 120°07'49 1.8
2017-May-25 10:02N 38°30' E 121°09'015.9
2017-May-25 10:01N 38°29' E 121°09'815.5
2017-May-25 09:29N 38°26' E 121°19'816.1
2017-May-25 09:00N 38°23' E 121°27'816.6
2017-May-25 08:30N 38°19' E 121°37'817.0
2017-May-25 08:01N 38°15' E 121°46'917.3
2017-May-25 07:28N 38°10' E 121°57'817.4
2017-May-25 07:00N 38°07' E 122°06'817.0
2017-May-25 06:30N 38°03' E 122°15'14215.2
2017-May-24 21:11N 36°10' E 124°04'317.5
2017-May-24 20:59N 36°07' E 124°06'1017.6
2017-May-24 20:25N 35°58' E 124°11'2317.5
2017-May-24 19:05N 35°37' E 124°23'217.4
2017-May-24 18:59N 35°35' E 124°24'917.4
2017-May-24 18:29N 35°28' E 124°29'917.5
2017-May-24 18:00N 35°20' E 124°33'  
2017-May-21 20:41N 38°10' E 121°54'419.4
2017-May-21 20:29N 38°11' E 121°50'919.3
2017-May-21 20:00N 38°15' E 121°39'919.0
2017-May-21 19:30N 38°19' E 121°28'1019.5
2017-May-21 19:00N 38°24' E 121°17'1020.0
2017-May-21 18:30N 38°28' E 121°05'1415.0
2017-May-21 17:34N 38°33' E 120°49'125 7.3
2017-May-21 00:37N 38°53' E 118°11'215.1
2017-May-21 00:27N 38°52' E 118°14'716.3
2017-May-21 00:00N 38°51' E 118°23'816.7
2017-May-20 23:30N 38°50' E 118°34'1016.5
2017-May-20 22:55N 38°49' E 118°46'717.3
2017-May-20 22:30N 38°48' E 118°55'917.5
2017-May-20 21:59N 38°48' E 119°07'1017.3
2017-May-20 21:24N 38°47' E 119°20'717.2
2017-May-20 21:00N 38°46' E 119°28'917.2
2017-May-20 20:30N 38°45' E 119°39'2017.0
2017-May-20 19:19N 38°42' E 120°05'916.8
2017-May-20 18:45N 38°40' E 120°17'416.9
2017-May-20 18:30N 38°40' E 120°22'3815.2
2017-May-20 16:02N 38°30' E 121°09'015.7
2017-May-20 16:00N 38°30' E 121°09'816.8
2017-May-20 15:30N 38°27' E 121°20'918.5
2017-May-20 15:01N 38°22' E 121°29'2019.5
2017-May-20 14:00N 38°13' E 121°51'1019.7
2017-May-20 13:30N 38°08' E 122°02'1019.6
2017-May-20 13:00N 38°04' E 122°13'1019.6
2017-May-20 12:30N 37°59' E 122°24'1119.3
2017-May-20 11:57N 37°54' E 122°36'1019.2
2017-May-20 11:26N 37°50' E 122°47'1019.1
2017-May-20 10:55N 37°45' E 122°58'1019.1
2017-May-20 10:23N 37°40' E 123°10'  

Dump ship's entire track history